Date,TemperatureHighF,TemperatureAvgF,TemperatureLowF,DewpointHighF,DewpointAvgF,DewpointLowF,HumidityHigh,HumidityAvg,HumidityLow,PressureMaxIn,PressureMinIn,WindSpeedMaxMPH,WindSpeedAvgMPH,GustSpeedMaxMPH,PrecipitationSumIn
2013-1-1,23.0,20.4,18.0,15.0,13.3,12.0,80,74,63,0.00,40.00,5,4,0,0.00
2013-1-2,25.0,21.5,18.0,22.0,17.7,12.0,92,85,75,0.00,40.00,10,3,0,0.00
2013-1-3,27.0,24.0,20.0,23.0,20.6,16.0,96,86,76,0.00,40.00,10,6,0,0.00
2013-1-4,29.0,26.8,24.0,23.0,22.2,20.0,88,83,77,0.00,40.00,13,9,0,0.00
2013-1-5,34.0,26.0,16.0,32.0,24.6,16.0,99,94,84,0.00,40.00,12,5,0,0.06
2013-1-6,35.0,32.7,31.0,34.0,30.3,25.0,98,91,79,0.00,40.00,10,7,0,0.01
2013-1-7,35.0,31.6,29.0,29.0,26.4,25.0,86,80,71,0.00,40.00,18,10,0,0.00
2013-1-8,39.0,33.3,28.0,31.0,29.2,27.0,98,85,74,0.00,40.00,11,6,0,0.00
2013-1-9,42.0,37.5,32.0,34.0,28.8,24.0,83,71,52,0.00,40.00,14,10,0,0.00
2013-1-10,42.0,32.6,24.0,29.0,25.4,23.0,98,76,50,0.00,40.00,8,4,0,0.05
2013-1-11,46.0,40.6,35.0,46.0,40.3,33.0,101,99,93,0.00,40.00,11,8,0,0.20
2013-1-12,50.0,45.1,36.0,46.0,39.8,31.0,101,83,56,0.00,40.00,16,10,0,0.00
2013-1-13,34.0,29.3,24.0,31.0,27.9,21.0,99,94,87,0.00,40.00,5,1,0,0.01
2013-1-14,22.0,19.4,17.0,17.0,15.0,14.0,92,83,70,0.00,40.00,0,0,0,0.00
2013-1-15,28.0,23.2,17.0,19.0,17.4,15.0,90,78,64,0.00,40.00,8,3,0,0.01
2013-1-16,32.0,26.6,20.0,28.0,21.7,19.0,96,82,62,0.00,40.00,18,9,0,0.00
2013-1-17,31.0,24.1,19.0,29.0,15.3,7.0,90,68,55,0.00,40.00,10,5,0,0.00
2013-1-18,38.0,22.7,12.0,30.0,16.4,8.0,97,76,63,0.00,40.00,18,8,0,0.00
2013-1-19,41.0,39.3,38.0,35.0,33.6,31.0,85,79,74,0.00,40.00,17,12,0,0.00
2013-1-20,34.0,17.2,13.0,19.0,11.8,7.0,94,81,52,0.00,40.00,16,8,0,0.00
2013-1-21,14.0,8.6,2.0,10.0,5.1,-1.0,92,86,72,0.00,40.00,8,5,0,0.00
2013-1-22,7.0,1.5,-3.0,-1.0,-3.6,-7.0,88,79,59,0.00,40.00,6,3,0,0.00
2013-1-23,15.0,4.1,-5.0,13.0,1.4,-8.0,94,89,86,0.00,40.00,7,2,0,0.00
2013-1-24,14.0,9.3,-2.0,10.0,5.8,-4.0,94,85,74,0.00,40.00,4,2,0,0.00
2013-1-25,19.0,14.8,11.0,18.0,11.9,4.0,97,88,69,0.00,40.00,11,5,0,0.00
2013-1-26,27.0,20.6,17.0,20.0,18.4,16.0,97,91,76,0.00,40.00,4,1,0,0.01
2013-1-27,27.0,23.6,18.0,26.0,20.0,18.0,99,86,71,0.00,40.00,10,7,0,0.00
2013-1-28,37.0,33.6,29.0,37.0,32.7,29.0,100,97,87,0.00,40.00,7,4,0,0.06
2013-1-29,53.0,41.4,32.0,53.0,41.1,31.0,103,100,94,0.00,40.00,13,6,0,1.09
2013-1-30,48.0,37.5,26.0,48.0,32.0,-99.9,104,86,100,0.00,40.00,12,5,0,0.14
2013-1-31,22.0,16.8,14.0,22.0,16.8,14.0,104,100,98,0.00,40.00,7,6,0,0.00
2013-2-1,14.0,12.4,11.0,14.0,11.5,9.0,99,95,86,0.00,40.00,7,5,0,0.00
2013-2-2,19.0,12.6,3.0,14.0,10.0,1.0,99,89,74,0.00,40.00,6,3,0,0.00
2013-2-3,16.0,12.0,4.0,13.0,9.9,3.0,93,90,84,0.00,40.00,6,3,0,0.00
2013-2-4,19.0,14.7,11.0,13.0,10.8,7.0,97,86,63,0.00,40.00,5,1,0,0.00
2013-2-5,27.0,15.2,2.0,27.0,13.4,0.0,100,92,89,0.00,40.00,11,5,0,0.00
2013-2-6,29.0,21.6,14.0,21.0,18.0,14.0,98,87,66,0.00,40.00,6,2,0,0.03
2013-2-7,29.0,27.2,25.0,29.0,26.4,21.0,102,98,74,0.00,40.00,8,6,0,0.03
2013-2-8,31.0,26.3,21.0,29.0,25.4,19.0,102,98,87,0.00,40.00,8,6,0,0.06
2013-2-9,28.0,14.4,-1.0,20.0,10.6,-3.0,96,85,68,0.00,40.00,8,3,0,0.00
2013-2-10,36.0,26.1,16.0,36.0,23.7,15.0,100,90,82,0.00,40.00,11,7,0,0.09
2013-2-11,42.0,35.0,31.0,39.0,32.1,26.0,100,89,78,0.00,40.00,20,14,0,0.01
2013-2-12,29.0,27.1,25.0,23.0,21.7,20.0,82,79,75,0.00,40.00,8,6,0,0.00
2013-2-13,34.0,28.1,19.0,30.0,26.1,19.0,101,92,83,0.00,40.00,9,5,0,0.00
2013-2-14,37.0,32.0,29.0,34.0,31.4,29.0,101,97,89,0.00,40.00,12,7,0,0.02
2013-2-15,25.0,22.9,19.0,20.0,15.7,12.0,89,74,57,0.00,40.00,8,5,0,0.00
2013-2-16,20.0,16.4,12.0,15.0,12.3,10.0,93,84,62,0.00,40.00,5,3,0,0.01
2013-2-17,21.0,9.6,-2.0,10.0,3.4,-5.0,89,76,53,0.00,40.00,6,2,0,0.00
2013-2-18,41.0,27.9,16.0,40.0,18.9,8.0,98,69,56,0.00,40.00,13,9,0,0.11
2013-2-19,40.0,25.5,14.0,39.0,24.1,12.0,96,94,88,0.00,40.00,15,10,0,0.01
2013-2-20,22.0,17.2,14.0,15.0,12.0,10.0,92,80,71,0.00,40.00,9,8,0,0.00
2013-2-21,25.0,21.6,20.0,17.0,15.0,11.0,83,75,67,0.00,40.00,10,7,0,0.00
2013-2-22,27.0,22.9,18.0,27.0,21.1,13.0,99,93,80,0.00,40.00,15,9,0,0.00
2013-2-23,29.0,27.5,25.0,29.0,25.8,23.0,99,92,82,0.00,40.00,7,6,0,0.00
2013-2-24,38.0,29.0,25.0,26.0,24.3,22.0,98,85,53,0.00,40.00,5,3,0,0.02
2013-2-25,41.0,28.9,12.0,25.0,20.9,11.0,96,74,47,0.00,40.00,5,3,0,0.00
2013-2-26,36.0,29.4,26.0,31.0,23.6,20.0,99,79,58,0.00,40.00,18,12,0,0.00
2013-2-27,35.0,33.2,31.0,35.0,33.2,31.0,101,100,99,0.00,40.00,10,5,0,0.27
2013-2-28,35.0,32.0,28.0,32.0,27.5,21.0,99,84,71,0.00,40.00,9,6,0,0.01
2013-3-1,31.0,25.9,20.0,20.0,16.6,15.0,81,68,49,0.00,40.00,9,6,0,0.00
2013-3-2,32.0,21.5,14.0,14.0,12.8,10.0,88,70,46,0.00,40.00,7,5,0,0.00
2013-3-3,32.0,20.8,8.0,14.0,11.6,6.0,91,69,43,0.00,40.00,8,4,0,0.00
2013-3-4,35.0,18.4,5.0,17.0,10.7,2.0,91,73,46,0.00,40.00,4,2,0,0.00
2013-3-5,32.0,24.6,18.0,21.0,16.9,12.0,80,72,62,0.00,40.00,12,8,0,0.00
2013-3-6,41.0,32.5,26.0,28.0,24.9,21.0,86,74,55,0.00,40.00,12,5,0,0.00
2013-3-7,37.0,31.0,21.0,27.0,20.9,16.0,86,67,44,0.00,40.00,7,5,0,0.00
2013-3-8,38.0,25.2,14.0,24.0,17.8,13.0,94,75,48,0.00,40.00,7,3,0,0.00
2013-3-9,39.0,32.4,24.0,31.0,24.2,20.0,91,72,57,0.00,40.00,10,6,0,0.00
2013-3-10,43.0,40.9,38.0,42.0,39.5,31.0,98,94,76,0.00,40.00,7,4,0,0.31
2013-3-11,44.0,40.4,33.0,44.0,39.9,33.0,101,98,88,0.00,40.00,13,6,0,0.09
2013-3-12,33.0,29.3,26.0,32.0,26.6,23.0,100,90,77,0.00,40.00,8,5,0,0.02
2013-3-13,30.0,25.4,20.0,24.0,16.8,8.0,96,72,42,0.00,40.00,12,6,0,0.01
2013-3-14,36.0,26.4,15.0,20.0,16.4,13.0,92,67,46,0.00,40.00,10,3,0,0.00
2013-3-15,37.0,33.4,30.0,32.0,29.2,23.0,92,84,74,0.00,40.00,7,5,0,0.01
2013-3-16,35.0,27.5,23.0,26.0,21.7,15.0,96,80,47,0.00,40.00,9,7,0,0.06
2013-3-17,30.0,25.3,21.0,18.0,12.8,10.0,72,59,46,0.00,40.00,9,7,0,0.00
2013-3-18,32.0,25.0,20.0,31.0,20.8,13.0,98,84,71,0.00,40.00,12,9,0,0.02
2013-3-19,31.0,22.0,18.0,31.0,17.9,12.0,97,84,59,0.00,40.00,12,9,0,0.00
2013-3-20,23.0,18.7,13.0,13.0,11.0,9.0,91,71,59,0.00,40.00,8,4,0,0.05
2013-3-21,30.0,23.5,14.0,21.0,17.9,13.0,93,79,64,0.00,40.00,8,4,0,0.01
2013-3-22,38.0,29.5,24.0,20.0,18.4,17.0,76,64,46,0.00,40.00,7,4,0,0.00
2013-3-23,37.0,30.6,28.0,22.0,21.1,20.0,78,67,52,0.00,40.00,6,4,0,0.00
2013-3-24,35.0,30.9,27.0,23.0,21.8,20.0,77,68,56,0.00,40.00,11,7,0,0.00
2013-3-25,38.0,32.3,27.0,24.0,21.7,20.0,78,65,51,0.00,40.00,11,8,0,0.00
2013-3-26,41.0,34.3,29.0,30.0,27.4,24.0,85,75,60,0.00,40.00,8,6,0,0.02
2013-3-27,43.0,36.1,29.0,28.0,23.9,20.0,91,64,40,0.00,40.00,10,5,0,0.00
2013-3-28,47.0,36.0,26.0,25.0,21.7,18.0,88,60,31,0.00,40.00,8,4,0,0.00
2013-3-29,49.0,34.8,22.0,30.0,20.9,16.0,93,62,27,0.00,40.00,7,2,0,0.00
2013-3-30,51.0,37.0,22.0,31.0,21.5,-99.9,95,63,29,0.00,40.00,11,5,0,0.00
2013-3-31,46.0,40.6,36.0,40.0,35.4,29.0,96,82,62,0.00,40.00,9,7,0,0.05
2013-4-1,30.0,27.7,25.0,29.0,15.9,12.0,93,61,48,0.00,40.00,10,7,0,0.00
2013-4-2,36.0,28.5,18.0,23.0,14.5,8.0,92,59,31,0.00,40.00,11,5,0,0.01
2013-4-3,42.0,31.0,19.0,20.0,15.5,13.0,83,55,30,0.00,40.00,8,4,0,0.00
2013-4-4,49.0,36.6,25.0,23.0,20.1,18.0,78,54,30,0.00,40.00,15,8,0,0.00
2013-4-5,47.0,37.9,29.0,26.0,19.1,14.0,76,49,26,0.00,40.00,8,6,0,0.00
2013-4-6,54.0,41.7,32.0,35.0,22.5,14.0,63,47,32,0.00,40.00,16,10,0,0.01
2013-4-7,53.0,42.5,32.0,46.0,35.1,28.0,91,76,55,0.00,40.00,17,8,0,0.20
2013-4-8,46.0,37.9,32.0,46.0,35.1,28.0,99,89,78,0.00,40.00,10,6,0,0.33
2013-4-9,42.0,40.0,39.0,42.0,40.0,39.0,100,100,99,0.00,40.00,9,5,0,0.90
2013-4-10,42.0,39.5,36.0,41.0,36.5,32.0,100,89,78,0.00,40.00,14,10,0,0.65
2013-4-11,37.0,34.7,33.0,33.0,31.1,27.0,92,86,68,0.00,40.00,19,14,0,1.00
2013-4-12,33.0,32.6,32.0,31.0,31.0,31.0,96,92,89,0.00,40.00,15,10,0,0.14
2013-4-13,37.0,35.5,34.0,32.0,26.6,23.0,91,70,56,0.00,40.00,11,8,0,0.01
2013-4-14,44.0,36.0,27.0,36.0,31.0,26.0,95,82,71,0.00,40.00,12,6,0,0.03
2013-4-15,58.0,49.8,43.0,52.0,43.6,35.0,94,79,71,0.00,40.00,18,9,0,0.37
2013-4-16,49.0,43.1,36.0,44.0,34.1,30.0,96,72,48,0.00,40.00,8,4,0,0.19
2013-4-17,48.0,41.5,37.0,39.0,33.4,29.0,94,73,58,0.00,40.00,12,8,0,0.49
2013-4-18,56.0,47.5,41.0,56.0,46.8,39.0,99,97,88,0.00,40.00,12,7,0,1.35
2013-4-19,57.0,38.6,32.0,55.0,31.6,24.0,93,75,64,0.00,40.00,21,15,0,0.06
2013-4-20,37.0,30.7,25.0,22.0,16.4,12.0,65,55,37,0.00,40.00,10,7,0,0.00
2013-4-21,49.0,34.5,21.0,28.0,21.0,17.0,88,60,37,0.00,40.00,10,5,0,0.00
2013-4-22,63.0,48.5,34.0,31.0,28.8,26.0,74,50,25,0.00,40.00,9,6,0,0.00
2013-4-23,58.0,48.3,36.0,48.0,38.3,29.0,94,70,43,0.00,40.00,9,6,0,0.34
2013-4-24,46.0,38.0,33.0,33.0,26.6,19.0,91,66,33,0.00,40.00,10,8,0,0.01
2013-4-25,48.0,41.7,35.0,36.0,29.5,25.0,90,63,41,0.00,40.00,13,8,0,0.11
2013-4-26,63.0,46.8,31.0,40.0,31.9,28.0,93,61,32,0.00,40.00,19,9,0,0.00
2013-4-27,68.0,56.1,44.0,43.0,38.7,-99.9,85,59,35,0.00,40.00,9,5,0,0.00
2013-4-28,63.0,55.1,45.0,51.0,43.5,38.0,83,64,55,0.00,40.00,6,3,0,0.00
2013-4-29,67.0,54.8,44.0,52.0,48.9,42.0,99,82,55,0.00,40.00,11,4,0,0.00
2013-4-30,76.0,68.8,56.0,58.0,56.1,51.0,92,65,53,0.00,40.00,16,11,0,0.12
2013-5-1,81.0,71.1,60.0,59.0,54.7,49.0,84,59,34,0.00,40.00,11,7,0,0.00
2013-5-2,81.0,66.4,49.0,56.0,52.4,44.0,89,63,39,0.00,40.00,9,5,0,0.16
2013-5-3,76.0,59.1,45.0,55.0,49.8,43.0,95,74,44,0.00,40.00,9,5,0,0.01
2013-5-4,74.0,65.3,56.0,46.0,40.9,32.0,60,42,26,0.00,40.00,10,6,0,0.00
2013-5-5,74.0,61.9,52.0,44.0,38.1,33.0,57,42,26,0.00,40.00,10,6,0,0.00
2013-5-6,77.0,63.3,46.0,43.0,36.5,31.0,74,41,18,0.00,40.00,7,4,0,0.00
2013-5-7,77.0,61.6,48.0,47.0,40.8,36.0,68,49,22,0.00,40.00,7,4,0,0.00
2013-5-8,77.0,65.7,54.0,50.0,46.4,42.0,73,52,34,0.00,40.00,7,3,0,0.00
2013-5-9,77.0,61.9,48.0,48.0,43.6,38.0,90,56,27,0.00,40.00,5,2,0,0.00
2013-5-10,59.0,48.8,45.0,51.0,43.4,-99.9,97,87,64,0.00,40.00,11,7,0,0.48
2013-5-11,49.0,42.7,37.0,45.0,37.8,-99.9,96,88,64,0.00,40.00,14,7,0,0.02
2013-5-12,43.0,38.6,34.0,33.0,26.9,23.0,85,63,44,0.00,40.00,11,7,0,0.00
2013-5-13,52.0,39.5,25.0,31.0,23.9,19.0,92,59,27,0.00,40.00,7,3,0,0.00
2013-5-14,69.0,55.9,44.0,51.0,39.0,28.0,72,53,45,0.00,40.00,13,7,0,0.00
2013-5-15,75.0,65.2,57.0,53.0,47.3,37.0,72,55,27,0.00,40.00,10,5,0,0.00
2013-5-16,79.0,52.9,43.0,47.0,18.4,-99.9,94,54,21,0.00,40.00,8,3,0,0.00
2013-5-17,62.0,54.8,50.0,47.0,32.3,-99.9,70,56,30,0.00,40.00,9,7,0,0.00
2013-5-18,79.0,64.8,54.0,54.0,46.0,41.0,69,52,31,0.00,40.00,8,6,0,0.00
2013-5-19,83.0,70.9,56.0,60.0,52.9,46.0,70,54,41,0.00,40.00,9,5,0,0.00
2013-5-20,82.0,73.7,67.0,69.0,60.8,55.0,83,65,41,0.00,40.00,18,8,0,0.14
2013-5-21,75.0,69.4,61.0,64.0,60.8,57.0,97,75,62,0.00,40.00,15,9,0,0.23
2013-5-22,68.0,62.9,61.0,63.0,60.5,58.0,96,91,78,0.00,40.00,9,3,0,0.97
2013-5-23,59.0,51.2,42.0,58.0,47.1,34.0,96,86,57,0.00,40.00,9,6,0,0.73
2013-5-24,61.0,47.4,35.0,41.0,35.8,32.0,88,66,44,0.00,40.00,7,5,0,0.00
2013-5-25,64.0,51.7,38.0,39.0,35.2,31.0,90,58,29,0.00,40.00,6,3,0,0.00
2013-5-26,67.0,54.6,41.0,43.0,39.3,37.0,87,59,32,0.00,40.00,5,3,0,0.00
2013-5-27,60.0,53.8,47.0,48.0,41.6,37.0,87,64,45,0.00,40.00,10,7,0,0.00
2013-5-28,70.0,58.4,51.0,66.0,56.3,49.0,98,93,79,0.00,40.00,12,6,0,0.73
2013-5-29,74.0,64.6,59.0,65.0,61.2,58.0,97,89,62,0.00,40.00,10,4,0,0.00
2013-5-30,82.0,74.0,66.0,66.0,63.8,61.0,89,72,52,0.00,40.00,17,9,0,0.00
2013-5-31,77.0,72.0,65.0,66.0,62.7,59.0,91,73,57,0.00,40.00,17,12,0,0.00
2013-6-1,72.0,68.9,63.0,65.0,59.8,-99.9,92,77,63,0.00,40.00,17,11,0,0.12
2013-6-2,63.0,52.3,42.0,61.0,46.9,39.0,96,82,64,0.00,40.00,10,7,0,0.01
2013-6-3,66.0,51.7,37.0,43.0,39.5,36.0,96,67,36,0.00,40.00,6,3,0,0.00
2013-6-4,70.0,57.2,44.0,46.0,43.0,41.0,92,62,40,0.00,40.00,7,4,0,0.00
2013-6-5,65.0,59.4,56.0,49.0,43.4,37.0,73,56,37,0.00,40.00,10,6,0,0.01
2013-6-6,70.0,59.7,53.0,51.0,45.7,43.0,82,61,37,0.00,40.00,7,6,0,0.01
2013-6-7,76.0,60.5,47.0,48.0,43.2,37.0,92,58,25,0.00,40.00,9,5,0,0.00
2013-6-8,72.0,61.0,49.0,55.0,50.1,47.0,94,69,42,0.00,40.00,4,2,0,0.00
2013-6-9,78.0,66.5,55.0,59.0,54.8,51.0,85,67,48,0.00,40.00,9,7,0,0.00
2013-6-10,71.0,65.2,61.0,63.0,59.2,52.0,95,81,59,0.00,40.00,7,5,0,0.24
2013-6-11,77.0,64.8,54.0,63.0,58.7,54.0,97,82,59,0.00,40.00,10,3,0,0.00
2013-6-12,74.0,65.9,58.0,67.0,61.8,57.0,96,87,69,0.00,40.00,4,2,0,0.54
2013-6-13,71.0,65.2,60.0,64.0,57.1,53.0,97,76,57,0.00,40.00,10,6,0,0.52
2013-6-14,78.0,62.9,51.0,52.0,49.0,45.0,92,64,31,0.00,40.00,7,4,0,0.00
2013-6-15,73.0,63.6,51.0,61.0,55.0,49.0,94,74,58,0.00,40.00,12,4,0,0.00
2013-6-16,76.0,67.0,59.0,64.0,60.5,56.0,97,81,54,0.00,40.00,10,6,0,0.88
2013-6-17,81.0,67.5,57.0,61.0,55.8,52.0,94,69,39,0.00,40.00,7,3,0,0.12
2013-6-18,73.0,63.5,54.0,60.0,49.8,45.0,94,64,39,0.00,40.00,9,5,0,0.00
2013-6-19,74.0,59.4,45.0,48.0,43.4,40.0,91,59,29,0.00,40.00,6,3,0,0.00
2013-6-20,80.0,61.0,49.0,51.0,48.4,47.0,94,68,35,0.00,40.00,4,2,0,0.00
2013-6-22,83.0,77.7,68.0,67.0,64.9,61.0,86,65,48,0.00,40.00,11,4,0,0.00
2013-6-23,83.0,73.4,67.0,67.0,63.9,60.0,91,74,45,0.00,40.00,15,9,0,0.00
2013-6-25,77.0,70.5,67.0,66.0,65.3,64.0,96,84,69,0.00,40.00,8,4,0,0.01
2013-6-26,82.0,71.8,63.0,69.0,65.9,62.0,97,82,62,0.00,40.00,8,3,0,0.00
2013-6-27,83.0,73.2,65.0,67.0,65.4,62.0,95,78,50,0.00,40.00,8,3,0,0.00
2013-6-28,78.0,68.7,61.0,64.0,61.6,59.0,96,79,54,0.00,40.00,7,3,0,0.22
2013-6-29,71.0,64.9,60.0,62.0,60.2,58.0,96,85,66,0.00,40.00,6,3,0,0.16
2013-6-30,80.0,69.5,59.0,59.0,54.2,43.0,92,62,33,0.00,40.00,7,4,0,0.00
2013-7-1,78.0,65.9,53.0,51.0,48.6,46.0,86,56,35,0.00,40.00,11,6,0,0.00
2013-7-2,64.0,60.1,57.0,58.0,50.1,41.0,92,71,50,0.00,40.00,6,4,0,0.14
2013-7-3,75.0,64.1,56.0,64.0,58.7,51.0,97,83,67,0.00,40.00,7,4,0,0.43
2013-7-4,75.0,67.4,61.0,62.0,59.8,56.0,97,79,52,0.00,40.00,9,4,0,0.00
2013-7-5,81.0,70.4,59.0,63.0,60.1,58.0,96,73,47,0.00,40.00,8,3,0,0.00
2013-7-6,83.0,68.1,61.0,65.0,61.8,59.0,94,81,51,0.00,40.00,8,2,0,0.00
2013-7-7,81.0,73.6,68.0,67.0,66.1,65.0,91,78,61,0.00,40.00,10,5,0,0.00
2013-7-8,74.0,72.1,70.0,69.0,68.0,67.0,91,87,82,0.00,40.00,10,5,0,0.06
2013-7-9,82.0,71.0,65.0,71.0,66.8,64.0,97,87,60,0.00,40.00,7,3,0,0.05
2013-7-10,76.0,70.6,61.0,71.0,58.0,-99.9,95,70,48,0.00,40.00,9,6,0,0.00
2013-7-11,82.0,67.6,54.0,59.0,54.3,49.0,96,66,32,0.00,40.00,8,4,0,0.00
2013-7-12,83.0,67.8,55.0,58.0,54.7,49.0,95,67,31,0.00,40.00,4,3,0,0.00
2013-7-13,84.0,71.0,57.0,61.0,57.3,54.0,95,66,36,0.00,40.00,5,3,0,0.00
2013-7-14,88.0,75.2,61.0,67.0,62.1,57.0,89,65,43,0.00,40.00,5,3,0,0.00
2013-7-15,94.0,78.7,67.0,71.0,67.2,65.0,94,70,43,0.00,40.00,5,2,0,0.00
2013-7-16,88.0,80.2,71.0,72.0,70.2,69.0,95,73,53,0.00,40.00,10,4,0,0.00
2013-7-17,91.0,79.9,70.0,73.0,69.5,68.0,95,73,48,0.00,40.00,10,4,0,0.00
2013-7-18,90.0,83.2,72.0,72.0,69.9,68.0,94,66,47,0.00,40.00,13,7,0,0.00
2013-7-19,90.0,83.3,79.0,72.0,69.5,67.0,76,64,49,0.00,40.00,17,10,0,0.00
2013-7-20,82.0,73.1,63.0,67.0,56.1,-99.9,91,60,35,0.00,40.00,8,3,0,0.00
2013-7-21,81.0,69.0,58.0,61.0,52.1,47.0,69,56,36,0.00,40.00,4,2,0,0.00
2013-7-22,81.0,72.0,63.0,65.0,62.3,59.0,94,73,51,0.00,40.00,11,5,0,0.00
2013-7-23,74.0,69.9,56.0,67.0,58.1,47.0,84,67,47,0.00,40.00,12,7,0,0.00
2013-7-24,75.0,61.2,45.0,50.0,44.9,42.0,95,60,31,0.00,40.00,6,3,0,0.00
2013-7-25,75.0,62.1,47.0,52.0,48.8,46.0,96,66,40,0.00,40.00,9,4,0,0.00
2013-7-26,70.0,63.6,59.0,63.0,57.1,46.0,94,80,52,0.00,40.00,12,6,0,0.41
2013-7-27,64.0,60.0,54.0,61.0,55.4,47.0,97,85,68,0.00,40.00,7,4,0,0.00
2013-7-28,63.0,56.0,51.0,54.0,51.4,48.0,96,84,61,0.00,40.00,7,4,0,0.25
2013-7-29,66.0,58.7,54.0,55.0,53.8,53.0,96,84,65,0.00,40.00,5,2,0,0.03
2013-7-30,77.0,61.5,46.0,57.0,51.9,45.0,97,74,42,0.00,40.00,6,2,0,0.00
2013-7-31,68.0,64.1,61.0,64.0,61.0,57.0,96,89,78,0.00,40.00,5,1,0,0.67
2013-8-1,76.0,66.6,57.0,62.0,56.0,49.0,97,72,39,0.00,40.00,7,3,0,0.00
2013-8-2,73.0,64.9,56.0,63.0,58.7,54.0,95,81,68,0.00,40.00,10,2,0,0.00
2013-8-3,75.0,64.9,52.0,61.0,53.0,49.0,97,70,40,0.00,40.00,8,3,0,0.00
2013-8-4,73.0,62.3,52.0,54.0,50.9,44.0,95,69,38,0.00,40.00,7,3,0,0.00
2013-8-5,69.0,58.2,46.0,58.0,51.1,45.0,97,79,52,0.00,40.00,9,2,0,0.00
2013-8-6,73.0,66.9,63.0,66.0,62.6,58.0,93,85,75,0.00,40.00,9,5,0,0.00
2013-8-7,78.0,69.1,61.0,67.0,63.2,59.0,95,82,61,0.00,40.00,8,4,0,0.35
2013-8-8,78.0,65.9,53.0,59.0,52.3,48.0,94,65,35,0.00,40.00,4,2,0,0.00
2013-8-9,76.0,64.7,50.0,60.0,55.3,49.0,96,73,51,0.00,40.00,8,3,0,0.00
2013-8-10,75.0,65.1,52.0,59.0,53.2,51.0,96,68,43,0.00,40.00,5,2,0,0.00
2013-8-11,72.0,63.0,53.0,59.0,55.5,51.0,96,77,53,0.00,40.00,5,2,0,0.00
2013-8-12,76.0,66.9,60.0,63.0,59.6,55.0,92,78,60,0.00,40.00,8,2,0,0.00
2013-8-13,67.0,58.5,52.0,56.0,44.7,-99.9,84,63,40,0.00,40.00,10,7,0,0.01
2013-8-14,69.0,56.0,44.0,49.0,44.8,42.0,94,69,40,0.00,40.00,6,3,0,0.00
2013-8-15,75.0,55.0,43.0,56.0,38.1,-99.9,96,67,34,0.00,40.00,6,3,0,0.00
2013-8-16,81.0,65.8,49.0,58.0,46.5,-99.9,97,60,31,0.00,40.00,4,2,0,0.00
2013-8-17,81.0,65.3,50.0,58.0,49.9,-99.9,97,66,29,0.00,40.00,5,2,0,0.00
2013-8-18,81.0,66.2,51.0,57.0,52.5,49.0,97,67,33,0.00,40.00,5,2,0,0.00
2013-8-19,79.0,61.1,49.0,61.0,46.9,-99.9,97,72,42,0.00,40.00,10,3,0,0.00
2013-8-20,82.0,69.3,56.0,65.0,59.6,55.0,95,73,49,0.00,40.00,11,5,0,0.00
2013-8-21,84.0,73.8,62.0,66.0,62.8,59.0,95,71,48,0.00,40.00,13,7,0,0.10
2013-8-22,76.0,69.3,63.0,67.0,65.3,62.0,96,87,73,0.00,40.00,11,3,0,0.22
2013-8-23,83.0,67.0,51.0,58.0,51.2,47.0,95,62,29,0.00,40.00,5,2,0,0.00
2013-8-24,81.0,65.1,53.0,59.0,51.7,-99.9,97,69,34,0.00,40.00,8,3,0,0.00
2013-8-25,82.0,71.8,59.0,64.0,60.2,56.0,88,68,51,0.00,40.00,14,8,0,0.00
2013-8-26,82.0,75.9,72.0,69.0,66.2,65.0,79,72,59,0.00,40.00,10,6,0,0.00
2013-8-27,82.0,74.6,70.0,72.0,70.1,69.0,96,86,70,0.00,40.00,10,5,0,0.23
2013-8-28,87.0,80.6,74.0,70.0,68.6,67.0,89,68,52,0.00,40.00,5,3,0,0.01
2013-8-29,86.0,75.7,65.0,69.0,65.5,62.0,96,74,44,0.00,40.00,4,1,0,0.00
2013-8-30,83.0,72.3,65.0,72.0,67.2,64.0,96,85,62,0.00,40.00,14,5,0,0.01
2013-8-31,80.0,69.7,63.0,65.0,60.7,-99.9,96,77,54,0.00,40.00,4,2,0,0.00
2013-9-1,81.0,68.5,59.0,67.0,63.2,58.0,97,84,57,0.00,40.00,8,2,0,0.01
2013-9-2,70.0,62.3,58.0,67.0,55.8,51.0,93,79,65,0.00,40.00,9,6,0,0.00
2013-9-3,71.0,61.5,51.0,53.0,51.4,48.0,91,71,48,0.00,40.00,6,3,0,0.00
2013-9-4,77.0,63.9,50.0,61.0,55.9,49.0,97,77,57,0.00,40.00,7,4,0,0.00
2013-9-5,73.0,59.5,45.0,56.0,46.6,40.0,95,67,30,0.00,40.00,5,2,0,0.01
2013-9-6,76.0,60.5,45.0,54.0,47.1,41.0,95,66,28,0.00,40.00,9,4,0,0.00
2013-9-7,77.0,67.9,61.0,67.0,60.2,-99.9,94,79,65,0.00,40.00,9,3,0,0.06
2013-9-8,75.0,67.0,61.0,65.0,58.1,52.0,96,75,47,0.00,40.00,6,4,0,0.00
2013-9-9,81.0,67.4,58.0,69.0,61.0,51.0,97,81,65,0.00,40.00,9,4,0,0.33
2013-9-10,87.0,79.7,73.0,70.0,66.2,63.0,87,65,44,0.00,40.00,13,8,0,0.02
2013-9-11,79.0,72.9,66.0,66.0,64.4,62.0,93,75,57,0.00,40.00,7,4,0,0.00
2013-9-12,73.0,64.1,55.0,64.0,55.6,47.0,96,76,52,0.00,40.00,9,4,0,0.00
2013-9-13,65.0,54.9,48.0,46.0,41.4,35.0,88,64,33,0.00,40.00,8,6,0,0.00
2013-9-14,65.0,49.6,36.0,50.0,39.6,-99.9,97,74,36,0.00,40.00,10,3,0,0.00
2013-9-15,59.0,54.4,51.0,55.0,49.8,45.0,96,84,70,0.00,40.00,7,2,0,0.00
2013-9-16,63.0,52.8,44.0,53.0,45.2,42.0,96,77,45,0.00,40.00,6,4,0,0.00
2013-9-17,65.0,50.6,36.0,48.0,41.9,35.0,96,75,40,0.00,40.00,5,2,0,0.00
2013-9-18,65.0,48.7,47.0,56.0,46.7,45.0,94,92,73,0.00,40.00,1,0,0,0.00
2013-9-19,72.0,67.1,63.0,67.0,62.6,55.0,97,85,69,0.00,40.00,11,5,0,0.00
2013-9-20,70.0,67.7,62.0,68.0,64.1,58.0,94,88,80,0.00,40.00,11,7,0,0.00
2013-9-21,61.0,55.9,52.0,57.0,48.0,-99.9,91,78,62,0.00,40.00,8,4,0,0.00
2013-9-22,54.0,50.1,43.0,47.0,42.0,40.0,90,74,60,0.00,40.00,6,3,0,0.00
2013-9-23,63.0,48.2,36.0,46.0,40.8,35.0,97,78,51,0.00,40.00,6,2,0,0.00
2013-9-24,67.0,52.5,41.0,50.0,44.8,39.0,95,78,49,0.00,40.00,5,2,0,0.00
2013-9-25,71.0,54.7,44.0,51.0,46.8,42.0,96,78,36,0.00,40.00,4,2,0,0.00
2013-9-26,75.0,57.3,45.0,54.0,48.5,43.0,97,76,38,0.00,40.00,3,2,0,0.00
2013-9-27,76.0,60.0,45.0,55.0,49.6,44.0,97,72,38,0.00,40.00,6,2,0,0.00
2013-9-28,76.0,62.6,51.0,56.0,50.6,-99.9,96,69,42,0.00,40.00,15,5,0,0.00
2013-9-29,70.0,61.5,51.0,59.0,51.5,46.0,97,72,43,0.00,40.00,11,5,0,0.47
2013-9-30,68.0,54.6,42.0,52.0,47.2,41.0,97,78,46,0.00,40.00,7,2,0,0.00
2013-10-1,68.0,67.8,67.0,61.0,61.0,61.0,79,78,77,0.00,40.00,11,8,0,0.00
2013-10-2,76.0,61.9,48.0,60.0,48.9,37.0,97,69,25,0.00,40.00,3,1,0,0.00
2013-10-3,74.0,60.2,48.0,66.0,54.9,44.0,93,82,72,0.00,40.00,11,4,0,0.00
2013-10-4,73.0,66.7,63.0,66.0,64.0,62.0,96,91,76,0.00,40.00,8,2,0,0.49
2013-10-5,68.0,64.0,60.0,65.0,62.0,59.0,96,93,85,0.00,40.00,4,2,0,0.07
2013-10-6,66.0,58.6,46.0,65.0,56.0,45.0,95,91,70,0.00,40.00,9,4,0,0.26
2013-10-7,59.0,51.7,45.0,50.0,46.6,43.0,95,84,58,0.00,40.00,10,5,0,0.10
2013-10-8,69.0,51.8,41.0,49.0,44.5,40.0,96,79,48,0.00,40.00,10,4,0,0.00
2013-10-9,69.0,61.0,47.0,49.0,47.0,46.0,92,63,44,0.00,40.00,7,3,0,0.00
2013-10-10,71.0,54.4,42.0,49.0,44.9,41.0,96,75,36,0.00,40.00,5,2,0,0.00
2013-10-11,70.0,54.5,42.0,47.0,43.9,40.0,94,72,33,0.00,40.00,5,2,0,0.00
2013-10-12,73.0,58.7,48.0,60.0,49.1,-99.9,96,74,51,0.00,40.00,13,5,0,0.39
2013-10-13,60.0,51.0,42.0,57.0,44.8,40.0,96,81,53,0.00,40.00,5,3,0,0.01
2013-10-14,62.0,46.8,35.0,44.0,37.6,34.0,97,75,36,0.00,40.00,5,2,0,0.00
2013-10-15,63.0,52.0,43.0,59.0,48.0,38.0,96,86,71,0.00,40.00,10,5,0,0.33
2013-10-16,60.0,51.6,49.0,57.0,48.2,45.0,95,88,82,0.00,40.00,8,5,0,0.01
2013-10-17,49.0,46.2,37.0,47.0,44.4,35.0,95,93,87,0.00,40.00,6,2,0,0.36
2013-10-18,56.0,44.0,34.0,48.0,39.6,33.0,97,85,61,0.00,40.00,10,4,0,0.02
2013-10-19,51.0,43.6,38.0,42.0,35.7,-99.9,94,77,43,0.00,40.00,9,3,0,0.00
2013-10-20,52.0,43.9,35.0,47.0,37.8,34.0,97,80,53,0.00,40.00,8,4,0,0.06
2013-10-21,50.0,45.0,38.0,47.0,37.3,25.0,94,75,59,0.00,40.00,7,5,0,0.00
2013-10-22,45.0,39.7,34.0,32.0,28.6,23.0,87,65,53,0.00,40.00,6,4,0,0.00
2013-10-23,43.0,35.7,29.0,35.0,29.2,23.0,96,79,47,0.00,40.00,7,3,0,0.00
2013-10-24,44.0,34.9,28.0,36.0,30.2,26.0,96,84,57,0.00,40.00,7,3,0,0.07
2013-10-25,48.0,38.0,28.0,32.0,29.1,25.0,96,72,48,0.00,40.00,17,5,0,0.00
2013-10-26,51.0,45.6,38.0,38.0,31.0,-99.9,68,58,48,0.00,40.00,21,11,0,0.06
2013-10-27,48.0,39.4,31.0,34.0,30.4,27.0,91,71,51,0.00,40.00,13,5,0,0.00
2013-10-28,45.0,39.5,32.0,36.0,30.3,-99.9,95,73,58,0.00,40.00,7,4,0,0.00
2013-10-29,43.0,37.5,34.0,33.0,29.9,27.0,85,74,65,0.00,40.00,4,3,0,0.00
2013-10-30,59.0,44.0,32.0,51.0,39.7,31.0,96,85,66,0.00,40.00,8,2,0,0.01
2013-10-31,59.0,57.3,55.0,58.0,56.1,53.0,97,95,91,0.00,40.00,11,6,0,1.04
2013-11-1,54.0,47.2,44.0,53.0,45.6,42.0,97,94,91,0.00,40.00,11,8,0,0.17
2013-11-2,47.0,42.2,38.0,41.0,33.6,-99.9,95,76,67,0.00,40.00,6,4,0,0.00
2013-11-3,46.0,42.5,38.0,34.0,32.3,31.0,80,67,57,0.00,40.00,6,4,0,0.00
2013-11-4,50.0,43.2,37.0,36.0,31.6,30.0,81,64,47,0.00,40.00,12,8,0,0.00
2013-11-5,56.0,51.8,48.0,47.0,44.6,37.0,85,77,67,0.00,40.00,11,7,0,0.00
2013-11-6,54.0,48.7,39.0,52.0,46.0,37.0,96,90,70,0.00,40.00,18,12,0,0.92
2013-11-7,41.0,36.7,33.0,35.0,26.4,22.0,87,66,53,0.00,40.00,7,4,0,0.01
2013-11-8,42.0,36.4,30.0,29.0,25.2,22.0,79,64,48,0.00,40.00,9,4,0,0.00
2013-11-9,49.0,44.6,39.0,40.0,33.2,-99.9,72,66,58,0.00,40.00,17,10,0,0.01
2013-11-10,45.0,39.1,29.0,33.0,29.0,26.0,89,67,52,0.00,40.00,10,5,0,0.00
2013-11-11,43.0,33.5,27.0,36.0,28.0,19.0,94,80,67,0.00,40.00,10,6,0,0.29
2013-11-12,33.0,27.3,20.0,23.0,17.6,15.0,83,67,48,0.00,40.00,10,5,0,0.00
2013-11-13,37.0,22.5,17.0,23.0,17.5,15.0,93,81,50,0.00,40.00,14,4,0,0.00
2013-11-14,45.0,43.0,39.0,32.0,30.3,28.0,64,60,57,0.00,40.00,16,12,0,0.00
2013-11-15,49.0,43.4,36.0,35.0,33.0,30.0,82,67,55,0.00,40.00,13,8,0,0.00
2013-11-16,53.0,44.6,36.0,50.0,38.3,-99.9,92,81,76,0.00,40.00,17,9,0,0.19
2013-11-17,60.0,57.8,54.0,57.0,55.1,52.0,94,91,88,0.00,40.00,20,15,0,0.20
2013-11-19,44.0,35.6,29.0,23.0,21.8,21.0,77,58,41,0.00,40.00,3,2,0,0.00
2013-11-20,43.0,35.2,29.0,27.0,23.5,22.0,76,63,47,0.00,40.00,10,5,0,0.00
2013-11-21,46.0,40.4,36.0,41.0,37.4,28.0,95,89,66,0.00,40.00,6,2,0,0.10
2013-11-22,42.0,34.2,23.0,41.0,30.0,20.0,96,84,66,0.00,40.00,10,5,0,0.00
2013-11-23,24.0,19.8,16.0,21.0,9.3,-99.9,93,67,58,0.00,40.00,14,9,0,0.00
2013-11-24,22.0,19.1,16.0,13.0,11.2,7.0,87,71,58,0.00,40.00,9,5,0,0.00
2013-11-25,31.0,27.7,21.0,27.0,15.8,13.0,96,62,50,0.00,40.00,17,13,0,0.00
2013-11-27,28.0,28.0,28.0,14.0,14.0,14.0,53,53,53,0.00,40.00,8,8,0,0.00
2013-12-4,50.0,44.6,41.0,49.0,44.2,41.0,97,97,97,0.00,40.00,12,7,0,0.00
2013-12-5,52.0,36.0,26.0,48.0,28.0,17.0,83,71,61,0.00,40.00,15,10,0,0.00
2013-12-6,24.0,20.4,19.0,14.0,12.1,11.0,72,70,67,0.00,40.00,7,5,0,0.00
2013-12-7,18.0,15.4,9.0,13.0,8.4,5.0,81,72,61,0.00,40.00,6,4,0,0.00
2013-12-8,19.0,14.8,8.0,15.0,10.1,5.0,91,81,64,0.00,40.00,5,3,0,0.00
2013-12-9,23.0,20.8,16.0,21.0,16.1,5.0,94,83,62,0.00,40.00,14,6,0,0.00
2013-12-11,15.0,13.5,12.0,8.0,6.0,4.0,73,71,69,0.00,40.00,7,6,0,0.00
2013-12-12,19.0,17.0,16.0,16.0,13.8,12.0,89,86,85,0.00,40.00,10,6,0,0.00
2013-12-13,26.0,22.8,21.0,17.0,15.2,13.0,83,73,61,0.00,40.00,5,3,0,0.01
2013-12-14,19.0,16.6,13.0,17.0,13.7,9.0,91,88,79,0.00,40.00,7,6,0,0.00
2013-12-15,18.0,16.3,13.0,17.0,13.4,9.0,92,87,82,0.00,40.00,6,3,0,0.00
2013-12-16,21.0,15.1,9.0,12.0,9.6,6.0,88,79,65,0.00,40.00,8,4,0,0.00
2013-12-17,27.0,22.2,16.0,26.0,20.4,13.0,95,93,90,0.00,40.00,8,5,0,0.00
2013-12-18,27.0,24.8,22.0,24.0,18.7,12.0,94,79,59,0.00,40.00,11,6,0,0.01
2013-12-19,35.0,32.0,27.0,29.0,26.7,24.0,88,81,74,0.00,40.00,13,6,0,0.00
2013-12-28,42.0,40.2,37.0,33.0,32.5,32.0,83,73,69,0.00,40.00,13,11,0,0.00
2013-12-29,38.0,28.6,18.0,32.0,23.0,10.0,87,79,70,0.00,40.00,10,8,0,0.00
2013-12-30,16.0,13.2,11.0,10.0,7.1,4.0,86,76,69,0.00,40.00,6,2,0,0.00
2013-12-31,13.0,11.6,10.0,10.0,7.1,5.0,86,81,73,0.00,40.00,5,3,0,0.00
2014-1-1,14.0,9.2,4.0,3.0,0.9,0.0,86,69,53,0.00,40.00,5,3,0,0.00
2014-1-2,12.0,8.1,-2.0,3.0,-0.4,-6.0,82,68,57,0.00,40.00,7,5,0,0.00